MST,Max TemperatureF,Mean TemperatureF,Min TemperatureF,Max Dew PointF,MeanDew PointF,Min DewpointF,Max Humidity, Mean Humidity, Min Humidity, Max Sea Level PressureIn, Mean Sea Level PressureIn, Min Sea Level PressureIn, Max VisibilityMiles, Mean VisibilityMiles, Min VisibilityMiles, Max Wind SpeedMPH, Mean Wind SpeedMPH, Max Gust SpeedMPH,PrecipitationIn, CloudCover, Events, WindDirDegrees
2011-10-1,98,88,77,48,46,45,36,21,17,29.97,29.92,29.87,20,20,20,12,5,17,0.00,4,,131
2011-10-2,98,86,73,52,49,46,47,24,17,30.01,29.94,29.86,20,20,20,7,2,,0.00,2,,69
2011-10-3,96,88,80,54,50,41,37,25,16,29.96,29.88,29.79,20,19,10,15,5,21,0.00,3,,126
2011-10-4,93,83,69,57,48,39,64,32,15,29.86,29.79,29.73,20,17,6,29,10,43,0.00,6,Rain-Thunderstorm,192
2011-10-5,80,71,62,61,47,41,94,46,24,29.93,29.84,29.75,20,20,20,14,5,21,0.00,6,,233
2011-10-6,75,70,66,52,35,30,53,28,19,29.83,29.80,29.76,20,20,20,16,11,23,0.00,5,,197
2011-10-7,75,64,53,36,30,21,51,28,13,29.98,29.95,29.90,20,20,20,13,6,17,0.00,2,,246
2011-10-8,78,64,51,32,30,27,47,23,15,30.03,29.96,29.91,20,20,20,12,5,,0.00,1,,211
2011-10-9,82,68,53,39,33,30,51,24,15,30.00,29.93,29.86,20,20,20,6,2,,0.00,2,,71
2011-10-10,86,74,62,37,32,28,39,19,12,29.95,29.86,29.82,20,20,20,7,3,,0.00,3,,173
2011-10-11,89,74,60,36,32,28,36,19,11,29.92,29.86,29.80,20,20,20,9,5,,0.00,0,,202
2011-10-12,96,79,62,39,36,34,39,20,11,29.95,29.87,29.81,20,20,20,10,3,,0.00,0,,182
2011-10-13,98,81,64,37,33,25,34,17,7,29.93,29.85,29.78,20,20,20,5,2,,0.00,0,,94
2011-10-14,98,82,66,39,35,30,32,18,10,29.92,29.85,29.79,20,20,20,7,3,,0.00,2,,174
2011-10-15,98,82,66,39,35,30,32,17,9,29.93,29.86,29.80,20,20,20,6,4,,0.00,1,,102
2011-10-16,96,79,62,37,34,30,39,18,10,29.97,29.92,29.87,20,20,20,12,5,16,0.00,0,,175
2011-10-17,96,80,64,39,38,36,40,22,13,30.02,29.96,29.89,20,20,20,8,4,,0.00,0,,196
2011-10-18,96,80,64,41,30,23,35,16,7,30.03,29.94,29.87,20,20,20,5,2,,0.00,1,,66
2011-10-19,95,78,62,34,31,28,34,16,9,29.93,29.86,29.79,20,20,20,12,3,,0.00,0,,115
2011-10-20,93,76,59,36,32,28,36,19,10,29.99,29.94,29.90,20,20,20,7,4,,0.00,0,,151
2011-10-21,91,76,62,54,42,34,37,24,15,30.10,30.02,29.97,20,20,20,7,3,,0.00,1,,34
2011-10-22,95,82,69,48,37,30,38,20,10,30.04,29.99,29.91,20,20,20,7,4,,0.00,0,,157
2011-10-23,95,83,71,43,34,28,25,16,10,30.02,29.95,29.89,20,20,20,6,2,,0.00,0,,-1
2011-10-24,91,76,62,39,37,34,34,24,14,30.01,29.95,29.90,20,20,20,5,1,,0.00,5,,203
2011-10-25,89,78,66,57,53,48,73,42,27,29.99,29.91,29.81,20,20,20,10,3,,0.00,6,,201
2011-10-26,78,70,62,57,46,32,82,41,22,29.88,29.82,29.77,20,20,20,21,9,28,0.00,3,,238
2011-10-27,75,67,59,36,33,32,37,26,21,30.04,29.98,29.93,20,20,20,12,7,,0.00,0,,108
2011-10-28,84,68,53,37,35,32,48,27,16,30.10,30.04,29.99,20,20,20,7,2,,0.00,1,,127
2011-10-29,84,70,57,39,36,34,41,25,18,30.07,30.01,29.96,20,20,20,5,1,,0.00,3,,50
2011-10-30,87,71,55,43,36,32,47,26,14,30.10,30.04,29.98,20,20,20,7,1,,0.00,0,,151
2011-10-31,89,73,57,43,34,27,55,25,10,30.03,29.95,29.88,20,20,20,5,1,,0.00,2,,159